createdAt,value
2018-07-06T00:02:10.862Z,30.20
2018-07-06T00:04:32.340Z,32.70
2018-07-06T00:06:53.917Z,25.87
2018-07-06T00:09:15.431Z,29.47
2018-07-06T00:11:36.946Z,26.43
2018-07-06T00:13:58.450Z,29.10
2018-07-06T00:16:20.128Z,31.23
2018-07-06T00:18:41.491Z,26.30
2018-07-06T00:21:03.108Z,29.93
2018-07-06T00:23:18.696Z,25.13
2018-07-06T00:25:40.147Z,30.03
2018-07-06T00:28:01.601Z,26.53
2018-07-06T00:30:23.201Z,31.37
2018-07-06T00:32:44.803Z,28.93
2018-07-06T00:35:06.315Z,31.17
2018-07-06T00:37:27.664Z,31.40
2018-07-06T00:39:49.301Z,27.40
2018-07-06T00:42:10.782Z,33.13
2018-07-06T00:44:32.268Z,26.10
2018-07-06T00:46:53.631Z,26.10
2018-07-06T00:49:15.260Z,29.70
2018-07-06T00:51:36.764Z,30.03
2018-07-06T00:53:58.279Z,29.97
2018-07-06T00:56:20.102Z,25.87
2018-07-06T00:58:42.872Z,25.23
2018-07-06T01:01:04.847Z,29.03
2018-07-06T01:03:26.970Z,30.17
2018-07-06T01:05:48.482Z,29.30
2018-07-06T01:08:10.658Z,30.87
2018-07-06T01:10:32.202Z,32.20
2018-07-06T01:12:59.325Z,35.47
2018-07-06T01:15:26.262Z,34.27
2018-07-06T01:17:47.805Z,30.70
2018-07-06T01:20:09.245Z,32.30
2018-07-06T01:22:30.871Z,37.90
2018-07-06T01:24:52.350Z,32.97
2018-07-06T01:27:14.124Z,33.97
2018-07-06T01:29:35.715Z,32.07
2018-07-06T01:31:57.201Z,37.80
2018-07-06T01:34:18.717Z,39.07
2018-07-06T01:36:40.267Z,36.93
2018-07-06T01:39:01.841Z,37.70
2018-07-06T01:41:23.336Z,42.33
2018-07-06T01:43:44.816Z,31.40
2018-07-06T01:46:06.350Z,36.27
2018-07-06T01:48:27.863Z,31.50
2018-07-06T01:50:49.401Z,34.50
2018-07-06T01:53:10.829Z,36.53
2018-07-06T01:55:32.515Z,39.27
2018-07-06T01:57:54.011Z,35.70
2018-07-06T02:00:15.697Z,36.60
2018-07-06T02:02:37.202Z,34.10
2018-07-06T02:04:58.799Z,36.73
2018-07-06T02:07:20.318Z,38.17
2018-07-06T02:09:41.955Z,39.33
2018-07-06T02:12:03.326Z,39.53
2018-07-06T02:14:24.974Z,40.30
2018-07-06T02:16:46.624Z,39.10
2018-07-06T02:19:08.157Z,37.90
2018-07-06T02:21:29.827Z,40.50
2018-07-06T02:23:51.390Z,33.03
2018-07-06T02:26:13.847Z,37.40
2018-07-06T02:28:35.456Z,33.60
2018-07-06T02:30:57.074Z,33.43
2018-07-06T02:33:19.619Z,32.87
2018-07-06T02:35:41.018Z,38.87
2018-07-06T02:38:02.584Z,33.80
2018-07-06T02:40:24.234Z,38.63
2018-07-06T02:42:45.637Z,34.37
2018-07-06T02:45:07.259Z,32.30
2018-07-06T02:47:28.841Z,27.20
2018-07-06T02:49:51.657Z,37.60
2018-07-06T02:52:13.037Z,30.17
2018-07-06T02:54:34.627Z,29.37
2018-07-06T02:56:56.272Z,30.27
2018-07-06T02:59:17.842Z,30.93
2018-07-06T03:01:39.301Z,27.77
2018-07-06T03:04:00.877Z,27.83
2018-07-06T03:06:22.446Z,32.27
2018-07-06T03:08:43.973Z,30.10
2018-07-06T03:11:05.336Z,27.57
2018-07-06T03:13:21.037Z,28.70
2018-07-06T03:15:42.347Z,37.00
2018-07-06T03:18:03.805Z,32.43
2018-07-06T03:20:25.414Z,33.47
2018-07-06T03:22:46.968Z,29.47
2018-07-06T03:25:08.521Z,31.07
2018-07-06T03:27:29.975Z,31.43
2018-07-06T03:29:45.479Z,33.90
2018-07-06T03:32:07.020Z,29.40
2018-07-06T03:34:28.552Z,29.50
2018-07-06T03:36:50.205Z,35.73
2018-07-06T03:39:12.069Z,37.93
2018-07-06T03:41:33.631Z,27.67
2018-07-06T03:43:55.318Z,30.73
2018-07-06T03:46:16.863Z,29.87
2018-07-06T03:48:39.338Z,26.30
2018-07-06T03:51:04.435Z,30.97
2018-07-06T03:53:26.176Z,29.53
2018-07-06T03:55:47.937Z,28.80
2018-07-06T03:58:09.464Z,30.37
2018-07-06T04:00:31.050Z,33.53
2018-07-06T04:02:52.450Z,34.83
2018-07-06T04:05:14.348Z,27.47
2018-07-06T04:07:35.858Z,34.20
2018-07-06T04:09:57.540Z,28.53
2018-07-06T04:12:19.071Z,24.90
2018-07-06T04:14:40.736Z,30.17
2018-07-06T04:17:02.074Z,26.10
2018-07-06T04:19:23.706Z,30.00
2018-07-06T04:21:45.090Z,25.57
2018-07-06T04:24:06.642Z,32.83
2018-07-06T04:26:28.261Z,22.03
2018-07-06T04:28:49.955Z,27.10
2018-07-06T04:31:11.538Z,23.13
2018-07-06T04:33:33.121Z,24.03
2018-07-06T04:35:54.675Z,26.73
2018-07-06T04:38:16.337Z,20.30
2018-07-06T04:40:38.005Z,22.73
2018-07-06T04:42:59.479Z,25.33
2018-07-06T04:45:20.892Z,21.80
2018-07-06T04:47:42.455Z,20.30
2018-07-06T04:50:03.923Z,25.33
2018-07-06T04:52:25.447Z,19.20
2018-07-06T04:54:47.246Z,20.77
2018-07-06T04:57:10.484Z,16.67
2018-07-06T04:59:33.128Z,17.40
2018-07-06T05:01:54.561Z,17.13
2018-07-06T05:04:16.185Z,19.73
2018-07-06T05:06:37.701Z,14.10
2018-07-06T05:08:59.301Z,13.60
2018-07-06T05:11:20.977Z,16.07
2018-07-06T05:13:42.537Z,15.40
2018-07-06T05:16:04.029Z,11.87
2018-07-06T05:18:25.657Z,9.37
2018-07-06T05:20:47.231Z,14.10
2018-07-06T05:23:08.741Z,13.53
2018-07-06T05:25:30.255Z,11.10
2018-07-06T05:27:51.885Z,14.90
2018-07-06T05:30:13.499Z,12.60
2018-07-06T05:32:35.183Z,16.47
2018-07-06T05:34:56.618Z,12.80
2018-07-06T05:37:17.916Z,14.43
2018-07-06T05:39:39.414Z,12.40
2018-07-06T05:42:01.161Z,14.23
2018-07-06T05:44:22.619Z,14.90
2018-07-06T05:46:44.318Z,18.13
2018-07-06T05:49:05.745Z,15.57
2018-07-06T05:51:21.348Z,10.40
2018-07-06T05:53:42.921Z,9.97
2018-07-06T05:56:04.444Z,8.43
2018-07-06T05:58:25.824Z,15.63
2018-07-06T06:00:47.360Z,8.40
2018-07-06T06:03:09.027Z,7.60
2018-07-06T06:05:30.407Z,10.17
2018-07-06T06:07:39.484Z,7.30
2018-07-06T06:09:43.621Z,15.90
2018-07-06T06:11:48.443Z,9.83
2018-07-06T06:13:53.934Z,7.30
2018-07-06T06:15:59.132Z,6.77
2018-07-06T06:18:03.593Z,19.23
2018-07-06T06:20:13.505Z,11.40
2018-07-06T06:22:17.916Z,9.73
2018-07-06T06:24:22.368Z,8.43
2018-07-06T06:26:29.480Z,7.70
2018-07-06T06:28:33.884Z,8.97
2018-07-06T06:30:39.027Z,12.20
2018-07-06T06:32:44.007Z,11.20
2018-07-06T06:34:48.593Z,11.80
2018-07-06T06:36:54.141Z,9.23
2018-07-06T06:38:58.668Z,8.80
2018-07-06T06:41:03.448Z,11.13
2018-07-06T06:43:07.834Z,8.43
2018-07-06T06:45:12.305Z,13.27
2018-07-06T06:47:16.762Z,7.20
2018-07-06T06:49:21.890Z,11.40
2018-07-06T06:51:26.428Z,10.87
2018-07-06T06:53:31.007Z,7.87
2018-07-06T06:55:35.479Z,7.80
2018-07-06T06:57:40.094Z,9.37
2018-07-06T06:59:44.638Z,11.53
2018-07-06T07:01:49.448Z,9.30
2018-07-06T07:03:54.838Z,8.50
2018-07-06T07:05:59.153Z,8.30
2018-07-06T07:08:04.030Z,7.77
2018-07-06T07:10:08.505Z,9.60
2018-07-06T07:12:13.965Z,6.87
2018-07-06T07:14:18.503Z,7.60
2018-07-06T07:16:23.690Z,10.80
2018-07-06T07:18:28.332Z,10.90
2018-07-06T07:20:33.001Z,8.07
2018-07-06T07:22:37.531Z,7.13
2018-07-06T07:24:42.267Z,9.10
2018-07-06T07:26:50.232Z,8.73
2018-07-06T07:28:54.734Z,9.00
2018-07-06T07:30:59.214Z,6.43
2018-07-06T07:33:03.720Z,7.87
2018-07-06T07:35:08.136Z,8.03
2018-07-06T07:37:12.653Z,9.63
2018-07-06T07:39:17.301Z,10.40
2018-07-06T07:41:21.827Z,9.03
2018-07-06T07:43:26.516Z,7.60
2018-07-06T07:45:31.033Z,8.03
2018-07-06T07:47:35.458Z,7.40
2018-07-06T07:49:39.919Z,7.83
2018-07-06T07:52:12.196Z,10.20
2018-07-06T07:54:31.482Z,6.90
2018-07-06T07:56:36.099Z,5.97
2018-07-06T07:58:42.111Z,6.63
2018-07-06T08:00:46.517Z,7.73
2018-07-06T08:02:50.928Z,8.47
2018-07-06T08:04:55.455Z,9.13
2018-07-06T08:06:59.867Z,11.10
2018-07-06T08:09:04.852Z,8.07
2018-07-06T08:11:09.537Z,6.43
2018-07-06T08:13:14.094Z,8.47
2018-07-06T08:15:18.802Z,8.67
2018-07-06T08:17:23.311Z,7.57
2018-07-06T08:19:27.855Z,8.57
2018-07-06T08:21:32.859Z,7.47
2018-07-06T08:23:37.754Z,8.50
2018-07-06T08:25:42.516Z,7.37
2018-07-06T08:27:46.934Z,8.50
2018-07-06T08:29:51.352Z,7.60
2018-07-06T08:31:55.752Z,8.00
2018-07-06T08:34:11.067Z,6.87
2018-07-06T08:37:28.360Z,8.60
2018-07-06T08:39:33.072Z,7.77
2018-07-06T08:41:38.101Z,11.30
2018-07-06T08:43:43.627Z,12.50
2018-07-06T08:45:49.275Z,14.27
2018-07-06T08:47:53.847Z,11.10
2018-07-06T08:50:01.150Z,12.87
2018-07-06T08:52:05.836Z,9.53
2018-07-06T08:54:10.639Z,9.70
2018-07-06T08:56:15.056Z,12.13
2018-07-06T08:58:19.559Z,9.00
2018-07-06T09:00:24.575Z,9.73
2018-07-06T09:02:29.447Z,11.80
2018-07-06T09:04:34.286Z,10.47
2018-07-06T09:06:39.103Z,10.87
2018-07-06T09:08:43.668Z,11.60
2018-07-06T09:10:48.063Z,14.60
2018-07-06T09:12:52.492Z,13.47
2018-07-06T09:14:58.195Z,11.90
2018-07-06T09:17:03.535Z,13.20
2018-07-06T09:19:07.715Z,15.30
2018-07-06T09:21:12.308Z,15.77
2018-07-06T09:23:16.897Z,13.53
2018-07-06T09:25:21.375Z,15.00
2018-07-06T09:27:26.702Z,14.87
2018-07-06T09:29:31.168Z,13.20
2018-07-06T09:31:35.330Z,14.20
2018-07-06T09:33:39.652Z,12.83
2018-07-06T09:35:44.366Z,12.47
2018-07-06T09:37:49.069Z,15.97
2018-07-06T09:39:56.381Z,11.67
2018-07-06T09:42:01.211Z,11.37
2018-07-06T09:44:06.467Z,12.20
2018-07-06T09:46:10.970Z,12.23
2018-07-06T09:48:15.541Z,12.10
2018-07-06T09:50:19.977Z,10.57
2018-07-06T09:52:24.466Z,10.23
2018-07-06T09:54:29.010Z,11.60
2018-07-06T09:56:33.414Z,10.23
2018-07-06T09:58:38.030Z,11.53
2018-07-06T10:00:47.864Z,11.13
2018-07-06T10:02:52.314Z,10.67
2018-07-06T10:04:56.682Z,16.03
2018-07-06T10:07:01.100Z,12.30
2018-07-06T10:09:06.608Z,16.23
2018-07-06T10:11:11.028Z,12.13
2018-07-06T10:13:18.152Z,13.63
2018-07-06T10:15:22.640Z,9.80
2018-07-06T10:17:27.138Z,10.73
2018-07-06T10:19:31.721Z,10.73
2018-07-06T10:21:39.209Z,9.63
2018-07-06T10:23:43.751Z,11.07
2018-07-06T10:25:48.259Z,9.20
2018-07-06T10:28:05.114Z,9.70
2018-07-06T10:31:25.293Z,10.40
2018-07-06T10:33:31.072Z,9.03
2018-07-06T10:35:35.866Z,8.80
2018-07-06T10:37:40.388Z,8.93
2018-07-06T10:39:45.182Z,9.20
2018-07-06T10:41:50.051Z,7.73
2018-07-06T10:43:54.588Z,7.90
2018-07-06T10:45:59.077Z,8.20
2018-07-06T10:48:03.526Z,7.87
2018-07-06T10:50:08.567Z,7.03
2018-07-06T10:52:15.336Z,8.17
2018-07-06T10:54:20.976Z,9.40
2018-07-06T10:56:25.937Z,8.63
2018-07-06T10:58:30.497Z,8.60
2018-07-06T11:00:34.999Z,8.73
2018-07-06T11:02:40.252Z,8.60
2018-07-06T11:04:44.688Z,7.80
2018-07-06T11:06:49.509Z,11.93
2018-07-06T11:08:54.060Z,11.10
2018-07-06T11:10:59.479Z,7.20
2018-07-06T11:13:03.808Z,7.93
2018-07-06T11:15:08.726Z,7.30
2018-07-06T11:17:13.275Z,7.00
2018-07-06T11:19:18.197Z,8.80
2018-07-06T11:21:22.687Z,6.63
2018-07-06T11:23:27.199Z,7.23
2018-07-06T11:25:32.434Z,8.00
2018-07-06T11:27:37.131Z,8.00
2018-07-06T11:29:41.593Z,6.27
2018-07-06T11:31:46.474Z,6.20
2018-07-06T11:33:50.867Z,8.10
2018-07-06T11:35:55.543Z,11.73
2018-07-06T11:38:00.023Z,7.43
2018-07-06T11:40:05.007Z,8.10
2018-07-06T11:42:09.287Z,10.67
2018-07-06T11:44:13.737Z,7.13
2018-07-06T11:46:18.193Z,5.93
2018-07-06T11:48:22.747Z,6.67
2018-07-06T11:50:27.452Z,7.27
2018-07-06T11:52:31.896Z,7.37
2018-07-06T11:54:36.362Z,8.57
2018-07-06T11:56:40.817Z,9.63
2018-07-06T11:58:45.320Z,7.27
2018-07-06T12:00:49.804Z,8.17
2018-07-06T12:02:54.376Z,9.43
2018-07-06T12:04:58.836Z,8.50
2018-07-06T12:07:03.339Z,7.20
2018-07-06T12:09:07.465Z,7.23
2018-07-06T12:11:11.842Z,7.27
2018-07-06T12:13:17.433Z,7.07
2018-07-06T12:15:22.268Z,8.37
2018-07-06T12:17:27.044Z,8.73
2018-07-06T12:19:31.414Z,8.33
2018-07-06T12:21:35.929Z,9.83
2018-07-06T12:23:40.308Z,8.33
2018-07-06T12:25:44.711Z,7.40
2018-07-06T12:27:49.381Z,8.13
2018-07-06T12:29:53.771Z,8.90
2018-07-06T12:31:58.222Z,9.50
2018-07-06T12:34:02.653Z,13.30
2018-07-06T12:36:07.149Z,11.50
2018-07-06T12:38:11.585Z,7.40
2018-07-06T12:40:16.092Z,6.80
2018-07-06T12:42:20.490Z,7.10
2018-07-06T12:44:24.922Z,10.17
2018-07-06T12:46:29.422Z,8.13
2018-07-06T12:48:34.039Z,6.93
2018-07-06T12:50:38.490Z,7.43
2018-07-06T12:52:42.961Z,8.50
2018-07-06T12:54:47.399Z,7.40
2018-07-06T12:56:52.117Z,7.50
2018-07-06T12:58:56.608Z,9.93
2018-07-06T13:01:01.294Z,7.80
2018-07-06T13:03:06.724Z,6.40
2018-07-06T13:05:15.445Z,6.33
2018-07-06T13:07:20.664Z,7.07
2018-07-06T13:09:25.353Z,6.90
2018-07-06T13:11:29.796Z,7.70
2018-07-06T13:13:34.240Z,6.87
2018-07-06T13:15:38.623Z,7.70
2018-07-06T13:17:43.162Z,10.53
2018-07-06T13:19:47.598Z,7.63
2018-07-06T13:21:52.098Z,7.70
2018-07-06T13:23:56.662Z,7.07
2018-07-06T13:26:01.245Z,8.47
2018-07-06T13:28:05.829Z,7.73
2018-07-06T13:30:10.202Z,8.20
2018-07-06T13:32:14.857Z,7.63
2018-07-06T13:34:19.274Z,7.50
2018-07-06T13:36:23.284Z,8.30
2018-07-06T13:38:27.600Z,8.97
2018-07-06T13:40:32.207Z,8.10
2018-07-06T13:42:36.724Z,11.60
2018-07-06T13:44:41.346Z,9.83
2018-07-06T13:46:46.855Z,8.00
2018-07-06T13:48:51.269Z,7.83
2018-07-06T13:50:55.717Z,8.00
2018-07-06T13:53:00.112Z,8.90
2018-07-06T13:55:04.658Z,9.67
2018-07-06T13:57:09.034Z,9.77
2018-07-06T13:59:13.503Z,11.40
2018-07-06T14:01:19.096Z,10.20
2018-07-06T14:03:23.598Z,13.73
2018-07-06T14:05:28.087Z,9.93
2018-07-06T14:07:32.170Z,8.73
2018-07-06T14:09:37.601Z,11.40
2018-07-06T14:11:42.024Z,10.13
2018-07-06T14:13:46.425Z,11.17
2018-07-06T14:15:50.894Z,10.27
2018-07-06T14:17:55.361Z,9.30
2018-07-06T14:19:59.905Z,10.00
2018-07-06T14:22:04.415Z,8.30
2018-07-06T14:24:10.917Z,10.37
2018-07-06T14:26:15.425Z,8.53
2018-07-06T14:28:19.873Z,9.03
2018-07-06T14:30:24.557Z,9.80
2018-07-06T14:32:28.556Z,8.40
2018-07-06T14:34:33.041Z,7.97
2018-07-06T14:36:37.427Z,9.27
2018-07-06T14:38:41.789Z,8.77
2018-07-06T14:40:46.377Z,8.40
2018-07-06T14:42:51.016Z,10.00
2018-07-06T14:44:55.557Z,7.60
2018-07-06T14:47:00.236Z,9.33
2018-07-06T14:49:04.981Z,7.50
2018-07-06T14:51:09.521Z,7.00
2018-07-06T14:53:17.394Z,8.20
2018-07-06T14:55:22.065Z,6.60
2018-07-06T14:57:26.732Z,9.60
2018-07-06T14:59:31.300Z,7.73
2018-07-06T15:01:36.027Z,5.73
2018-07-06T15:03:40.560Z,5.27
2018-07-06T15:05:45.268Z,6.80
2018-07-06T15:07:49.969Z,4.80
2018-07-06T15:09:54.789Z,5.67
2018-07-06T15:12:00.346Z,6.10
2018-07-06T15:14:05.439Z,13.97
2018-07-06T15:16:11.347Z,5.67
2018-07-06T15:18:24.567Z,8.13
2018-07-06T15:20:29.799Z,6.00
2018-07-06T15:22:34.495Z,4.20
2018-07-06T15:24:39.383Z,3.60
2018-07-06T15:26:45.709Z,8.57
2018-07-06T15:28:50.364Z,4.23
2018-07-06T15:30:56.055Z,5.73
2018-07-06T15:33:01.058Z,4.87
2018-07-06T15:35:05.672Z,6.30
2018-07-06T15:37:10.359Z,6.50
2018-07-06T15:39:15.209Z,12.80
2018-07-06T15:41:20.285Z,7.87
2018-07-06T15:43:25.087Z,4.30
2018-07-06T15:45:30.332Z,7.10
2018-07-06T15:47:35.176Z,8.13
2018-07-06T15:49:44.103Z,3.10
2018-07-06T15:51:51.935Z,2.27
2018-07-06T15:53:56.342Z,3.37
2018-07-06T15:56:01.237Z,4.20
2018-07-06T15:58:06.334Z,3.50
2018-07-06T16:00:11.039Z,6.23
2018-07-06T16:02:16.492Z,9.07
2018-07-06T16:04:26.863Z,5.07
2018-07-06T16:06:33.754Z,4.87
2018-07-06T16:08:39.075Z,8.10
2018-07-06T16:10:45.612Z,5.40
2018-07-06T16:12:50.762Z,4.83
2018-07-06T16:14:55.516Z,4.77
2018-07-06T16:17:00.077Z,5.30
2018-07-06T16:19:04.677Z,5.30
2018-07-06T16:21:10.231Z,6.13
2018-07-06T16:23:15.392Z,6.07
2018-07-06T16:25:19.908Z,6.20
2018-07-06T16:27:24.839Z,8.70
2018-07-06T16:29:30.777Z,5.80
2018-07-06T16:31:36.069Z,6.57
2018-07-06T16:33:44.411Z,5.53
2018-07-06T16:35:49.334Z,6.47
2018-07-06T16:37:53.869Z,5.60
2018-07-06T16:39:58.523Z,11.63
2018-07-06T16:42:03.138Z,7.17
2018-07-06T16:44:08.058Z,5.13
2018-07-06T16:46:12.739Z,6.23
2018-07-06T16:48:17.101Z,6.13
2018-07-06T16:50:21.225Z,5.40
2018-07-06T16:52:25.595Z,6.40
2018-07-06T16:54:30.300Z,8.00
2018-07-06T16:56:34.825Z,6.20
2018-07-06T16:58:39.476Z,7.63
2018-07-06T17:00:44.109Z,8.83
2018-07-06T17:02:48.554Z,9.60
2018-07-06T17:04:53.291Z,10.53
2018-07-06T17:06:57.892Z,6.33
2018-07-06T17:09:02.768Z,7.90
2018-07-06T17:11:07.133Z,6.77
2018-07-06T17:13:11.580Z,8.90
2018-07-06T17:15:15.912Z,25.83
2018-07-06T17:17:20.532Z,15.73
2018-07-06T17:19:26.450Z,7.73
2018-07-06T17:21:31.006Z,28.40
2018-07-06T17:23:35.566Z,8.33
2018-07-06T17:25:40.196Z,15.60
2018-07-06T17:27:44.896Z,11.60
2018-07-06T17:29:48.938Z,10.40
2018-07-06T17:31:53.370Z,8.53
2018-07-06T17:33:57.889Z,11.97
2018-07-06T17:36:02.693Z,12.40
2018-07-06T17:38:09.020Z,14.10
2018-07-06T17:40:13.490Z,9.90
2018-07-06T17:42:18.080Z,10.77
2018-07-06T17:44:22.639Z,10.57
2018-07-06T17:46:27.320Z,16.03
2018-07-06T17:48:31.735Z,11.67
2018-07-06T17:50:36.282Z,31.10
2018-07-06T17:52:40.951Z,13.23
2018-07-06T17:54:45.435Z,9.53
2018-07-06T17:56:50.104Z,9.83
2018-07-06T17:58:54.599Z,9.33
2018-07-06T18:00:59.052Z,10.00
2018-07-06T18:03:03.926Z,15.93
2018-07-06T18:05:08.443Z,16.00
2018-07-06T18:07:12.913Z,10.30
2018-07-06T18:09:17.439Z,9.97
2018-07-06T18:11:22.046Z,10.23
2018-07-06T18:13:26.715Z,12.87
2018-07-06T18:15:31.319Z,11.17
2018-07-06T18:17:36.482Z,11.30
2018-07-06T18:19:42.326Z,11.30
2018-07-06T18:21:46.892Z,10.50
2018-07-06T18:23:51.616Z,10.00
2018-07-06T18:25:56.163Z,10.73
2018-07-06T18:28:00.310Z,11.20
2018-07-06T18:30:07.278Z,14.40
2018-07-06T18:32:11.859Z,17.30
2018-07-06T18:34:16.928Z,10.53
2018-07-06T18:36:21.404Z,9.80
2018-07-06T18:38:25.979Z,15.67
2018-07-06T18:40:30.835Z,10.50
2018-07-06T18:42:35.221Z,9.80
2018-07-06T18:44:39.834Z,13.13
2018-07-06T18:46:44.557Z,14.17
2018-07-06T18:48:49.174Z,12.93
2018-07-06T18:50:53.831Z,12.73
2018-07-06T18:52:58.358Z,15.20
2018-07-06T18:55:03.178Z,9.90
2018-07-06T18:57:07.688Z,11.07
2018-07-06T18:59:13.029Z,11.83
2018-07-06T19:01:17.416Z,15.43
2018-07-06T19:03:22.159Z,13.60
2018-07-06T19:05:26.998Z,14.33
2018-07-06T19:07:31.377Z,10.90
2018-07-06T19:09:36.066Z,11.47
2018-07-06T19:11:40.956Z,10.20
2018-07-06T19:13:47.257Z,9.10
2018-07-06T19:15:52.977Z,11.27
2018-07-06T19:17:58.392Z,10.13
2018-07-06T19:20:03.435Z,8.80
2018-07-06T19:22:08.254Z,9.37
2018-07-06T19:24:13.613Z,9.70
2018-07-06T19:26:18.553Z,9.57
2018-07-06T19:28:23.239Z,13.97
2018-07-06T19:30:27.898Z,14.33
2018-07-06T19:32:34.618Z,9.83
2018-07-06T19:34:39.886Z,12.80
2018-07-06T19:36:45.725Z,9.20
2018-07-06T19:38:51.509Z,12.63
2018-07-06T19:40:58.571Z,12.03
2018-07-06T19:43:06.598Z,10.73
2018-07-06T19:45:11.996Z,10.50
2018-07-06T19:47:17.019Z,14.27
2018-07-06T19:49:21.964Z,10.03
2018-07-06T19:51:26.925Z,10.60
2018-07-06T19:53:32.474Z,14.97
2018-07-06T19:55:38.062Z,12.30
2018-07-06T19:57:42.970Z,12.10
2018-07-06T19:59:49.312Z,9.30
2018-07-06T20:01:54.759Z,11.30
2018-07-06T20:04:02.386Z,11.47
2018-07-06T20:06:07.450Z,11.50
2018-07-06T20:08:16.832Z,14.57
2018-07-06T20:10:23.609Z,13.20
2018-07-06T20:12:28.758Z,9.47
2018-07-06T20:14:33.897Z,9.30
2018-07-06T20:16:40.187Z,10.33
2018-07-06T20:18:48.238Z,9.93
2018-07-06T20:20:53.541Z,10.90
2018-07-06T20:22:59.021Z,12.33
2018-07-06T20:25:04.277Z,10.83
2018-07-06T20:27:10.377Z,12.17
2018-07-06T20:29:15.335Z,17.23
2018-07-06T20:31:20.688Z,10.60
2018-07-06T20:33:25.725Z,9.77
2018-07-06T20:35:34.443Z,10.53
2018-07-06T20:37:39.809Z,13.23
2018-07-06T20:39:44.979Z,13.57
2018-07-06T20:41:57.352Z,10.67
2018-07-06T20:44:10.146Z,15.60
2018-07-06T20:46:20.167Z,12.67
2018-07-06T20:48:26.447Z,14.90
2018-07-06T20:50:33.440Z,12.33
2018-07-06T20:52:38.662Z,12.63
2018-07-06T20:54:45.033Z,16.30
2018-07-06T20:56:49.739Z,17.03
2018-07-06T20:58:54.619Z,17.97
2018-07-06T21:00:59.269Z,13.23
2018-07-06T21:03:15.837Z,13.33
2018-07-06T21:05:20.339Z,11.43
2018-07-06T21:07:25.171Z,12.53
2018-07-06T21:09:29.980Z,11.13
2018-07-06T21:11:35.012Z,11.27
2018-07-06T21:13:40.092Z,12.20
2018-07-06T21:15:46.751Z,15.93
2018-07-06T21:17:51.286Z,11.00
2018-07-06T21:19:55.772Z,11.93
2018-07-06T21:22:00.469Z,13.90
2018-07-06T21:24:06.055Z,12.50
2018-07-06T21:26:10.806Z,14.37
2018-07-06T21:28:15.877Z,10.50
2018-07-06T21:30:20.835Z,9.87
2018-07-06T21:32:27.138Z,12.77
2018-07-06T21:34:32.383Z,13.47
2018-07-06T21:36:37.044Z,9.50
2018-07-06T21:38:41.657Z,11.03
2018-07-06T21:40:46.427Z,12.77
2018-07-06T21:42:51.157Z,9.03
2018-07-06T21:44:55.854Z,11.70
2018-07-06T21:47:00.386Z,10.77
2018-07-06T21:49:04.864Z,9.40
2018-07-06T21:51:09.518Z,15.70
2018-07-06T21:53:14.151Z,8.93
2018-07-06T21:55:18.631Z,11.20
2018-07-06T21:57:23.069Z,12.50
2018-07-06T21:59:28.898Z,11.87
2018-07-06T22:01:33.585Z,9.37
2018-07-06T22:03:38.241Z,10.77
2018-07-06T22:05:43.130Z,11.00
2018-07-06T22:07:47.626Z,11.07
2018-07-06T22:09:52.082Z,11.97
2018-07-06T22:11:56.545Z,10.87
2018-07-06T22:14:01.012Z,13.03
2018-07-06T22:16:05.612Z,14.63
2018-07-06T22:18:10.262Z,10.63
2018-07-06T22:20:15.673Z,11.30
2018-07-06T22:22:20.153Z,11.03
2018-07-06T22:24:25.149Z,12.47
2018-07-06T22:26:29.810Z,14.80
2018-07-06T22:28:34.461Z,13.03
2018-07-06T22:30:39.010Z,13.63
2018-07-06T22:32:43.436Z,13.50
2018-07-06T22:34:49.307Z,14.10
2018-07-06T22:36:53.762Z,11.53
2018-07-06T22:38:58.256Z,20.40
2018-07-06T22:41:02.713Z,11.53
2018-07-06T22:43:07.351Z,15.17
2018-07-06T22:45:11.922Z,12.47
2018-07-06T22:47:16.410Z,11.80
2018-07-06T22:49:20.842Z,12.50
2018-07-06T22:51:25.299Z,11.53
2018-07-06T22:53:29.790Z,11.70
2018-07-06T22:55:34.272Z,11.67
2018-07-06T22:57:39.258Z,16.27
2018-07-06T22:59:43.732Z,11.40
2018-07-06T23:01:48.145Z,11.47
2018-07-06T23:03:52.677Z,13.70
2018-07-06T23:05:57.269Z,14.43
2018-07-06T23:08:01.725Z,12.03
2018-07-06T23:10:06.183Z,12.30
2018-07-06T23:12:10.713Z,12.23
2018-07-06T23:14:15.236Z,14.50
2018-07-06T23:16:19.781Z,11.77
2018-07-06T23:18:24.311Z,12.57
2018-07-06T23:20:28.752Z,14.30
2018-07-06T23:23:10.664Z,14.33
2018-07-06T23:25:15.314Z,13.97
2018-07-06T23:27:19.955Z,12.13
2018-07-06T23:29:24.474Z,11.43
2018-07-06T23:31:30.283Z,12.27
2018-07-06T23:33:34.783Z,14.07
2018-07-06T23:35:39.243Z,12.03
2018-07-06T23:37:43.822Z,14.67
2018-07-06T23:39:48.242Z,17.13
2018-07-06T23:41:53.363Z,19.67
2018-07-06T23:43:57.838Z,13.20
2018-07-06T23:46:02.308Z,12.17
2018-07-06T23:48:06.766Z,13.97
2018-07-06T23:50:12.421Z,11.33
2018-07-06T23:52:16.956Z,13.87
2018-07-06T23:54:21.533Z,14.30
2018-07-06T23:56:26.050Z,12.40
2018-07-06T23:58:30.560Z,15.13
